Time;durP1;ratioP1;P1;durP2;ratioP2;P2;SDS_P1;SDS_P2;PMS_P1;PMS_P2;Temp;Humidity;BMP_temperature;BMP_pressure;BME280_temperature;BME280_humidity;BME280_pressure;Samples;Min_cycle;Max_cycle;Signal;HPM_P1;HPM_P2
2022/06/07 00:00:06;;;;;;;16.42;9.85;;;12.80;99.90;;;;;;5062648;28;20442;-43
2022/06/07 00:02:35;;;;;;;19.20;9.43;;;12.80;99.90;;;;;;5056398;28;20133;-43
2022/06/07 00:05:02;;;;;;;23.05;11.23;;;12.80;99.90;;;;;;5054585;28;20045;-43
2022/06/07 00:07:29;;;;;;;16.50;9.98;;;12.80;99.90;;;;;;5064703;28;20041;-43
2022/06/07 00:09:56;;;;;;;22.80;11.73;;;12.80;99.90;;;;;;5061394;28;20045;-43
2022/06/07 00:12:23;;;;;;;23.77;11.45;;;12.80;99.90;;;;;;5066503;28;20107;-44
2022/06/07 00:14:50;;;;;;;22.25;11.60;;;12.80;99.90;;;;;;5064590;28;20114;-44
2022/06/07 00:17:16;;;;;;;22.30;12.95;;;12.90;99.90;;;;;;5068443;28;20054;-43
2022/06/07 00:19:45;;;;;;;20.48;12.50;;;12.90;99.90;;;;;;5054243;28;20167;-43
2022/06/07 00:22:11;;;;;;;22.10;12.45;;;12.90;99.90;;;;;;5057273;28;20106;-43
2022/06/07 00:24:39;;;;;;;21.08;12.85;;;12.90;99.90;;;;;;5062470;28;20053;-44
2022/06/07 00:27:06;;;;;;;20.70;13.25;;;12.90;99.90;;;;;;5062723;28;20422;-43
2022/06/07 00:29:32;;;;;;;23.30;14.52;;;12.90;99.90;;;;;;5063261;28;20044;-43
2022/06/07 00:32:01;;;;;;;22.98;15.07;;;12.90;99.90;;;;;;5056185;28;20079;-43
2022/06/07 00:34:28;;;;;;;24.38;14.93;;;12.90;99.90;;;;;;5055377;28;20052;-43
2022/06/07 00:36:56;;;;;;;23.88;14.45;;;13.00;99.90;;;;;;5054739;28;20409;-44
2022/06/07 00:39:23;;;;;;;22.95;14.57;;;12.90;99.90;;;;;;5052590;28;20049;-43
2022/06/07 00:41:50;;;;;;;23.25;14.63;;;12.90;99.90;;;;;;5063605;28;20048;-44
2022/06/07 00:44:32;;;;;;;26.55;15.90;;;12.90;99.90;;;;;;5061005;28;20053;-43
2022/06/07 00:47:00;;;;;;;20.48;15.32;;;12.80;99.90;;;;;;5052506;28;20448;-43
2022/06/07 00:49:27;;;;;;;23.58;14.40;;;12.80;99.90;;;;;;5056836;28;20053;-43
2022/06/07 00:51:56;;;;;;;21.38;14.43;;;12.80;99.90;;;;;;5056186;28;20048;-44
2022/06/07 00:54:25;;;;;;;19.92;13.70;;;12.90;99.90;;;;;;5053256;28;20068;-43
2022/06/07 00:56:52;;;;;;;18.05;14.18;;;12.80;99.90;;;;;;5053508;28;20099;-44
2022/06/07 00:59:19;;;;;;;20.95;14.20;;;12.90;99.90;;;;;;5055500;28;20048;-43
2022/06/07 01:01:46;;;;;;;18.55;14.32;;;12.90;99.90;;;;;;5065193;28;20057;-44
2022/06/07 01:04:13;;;;;;;23.92;14.55;;;12.90;99.90;;;;;;5062077;28;20446;-43
2022/06/07 01:12:10;;;;;;;23.25;14.55;;;12.90;99.90;;;;;;5059187;28;20413;-44
2022/06/07 01:14:37;;;;;;;25.27;15.13;;;12.90;99.90;;;;;;5065528;28;20054;-43
2022/06/07 01:17:04;;;;;;;22.35;15.60;;;12.90;99.90;;;;;;5060313;28;20060;-43
2022/06/07 01:19:31;;;;;;;20.70;15.20;;;12.90;99.90;;;;;;5058718;28;20049;-43
2022/06/07 01:21:59;;;;;;;24.80;15.88;;;13.00;99.90;;;;;;5052348;28;20052;-43
2022/06/07 01:24:26;;;;;;;22.40;15.93;;;13.00;99.90;;;;;;5053032;28;20049;-43
2022/06/07 01:26:53;;;;;;;23.25;15.15;;;13.00;99.90;;;;;;5053585;28;20048;-43
2022/06/07 01:29:20;;;;;;;21.30;15.98;;;13.00;99.90;;;;;;5052680;28;20053;-43
2022/06/07 01:31:47;;;;;;;18.52;14.43;;;13.00;99.90;;;;;;5058398;28;20083;-43
2022/06/07 01:34:14;;;;;;;18.45;14.00;;;13.00;99.90;;;;;;5056155;28;20057;-44
2022/06/07 01:36:41;;;;;;;20.45;14.15;;;13.00;99.90;;;;;;5051666;28;20052;-43
2022/06/07 01:41:57;;;;;;;18.42;13.98;;;13.00;99.90;;;;;;5065994;28;20084;-43
2022/06/07 01:44:24;;;;;;;20.60;14.27;;;13.00;99.90;;;;;;5052272;28;20053;-43
2022/06/07 01:46:51;;;;;;;19.63;14.10;;;13.00;99.90;;;;;;5059137;28;20044;-43
2022/06/07 01:49:18;;;;;;;18.05;14.50;;;13.00;99.90;;;;;;5070743;28;20052;-42
2022/06/07 01:51:44;;;;;;;20.98;13.70;;;13.00;99.90;;;;;;5054887;28;20056;-43
2022/06/07 01:54:13;;;;;;;21.25;14.52;;;13.10;99.90;;;;;;5056807;28;20065;-43
2022/06/07 01:56:40;;;;;;;21.05;15.43;;;13.10;99.90;;;;;;5054819;28;20056;-43
2022/06/07 01:59:07;;;;;;;18.98;14.85;;;13.10;99.90;;;;;;5063229;28;20044;-43
2022/06/07 02:01:34;;;;;;;22.85;15.05;;;13.10;99.90;;;;;;5068419;28;20121;-43
2022/06/07 02:04:02;;;;;;;20.98;15.38;;;13.10;99.90;;;;;;5058578;28;20099;-43
2022/06/07 02:06:32;;;;;;;21.55;13.75;;;13.10;99.90;;;;;;5052617;28;20485;-44
2022/06/07 02:08:59;;;;;;;18.52;13.98;;;13.10;99.90;;;;;;5067203;28;20048;-43
2022/06/07 02:11:28;;;;;;;22.27;14.85;;;13.10;99.90;;;;;;5057294;28;20098;-43
2022/06/07 02:13:54;;;;;;;17.50;14.18;;;13.10;99.90;;;;;;5069334;28;20049;-44
2022/06/07 02:16:21;;;;;;;21.13;14.85;;;13.10;99.90;;;;;;5072476;28;20068;-43
2022/06/07 02:18:48;;;;;;;22.00;14.45;;;13.10;99.90;;;;;;5071272;28;20646;-43
2022/06/07 02:21:15;;;;;;;18.25;13.68;;;13.10;99.90;;;;;;5070856;28;20083;-44
2022/06/07 02:23:42;;;;;;;21.65;14.43;;;13.10;99.90;;;;;;5058139;28;20421;-43
2022/06/07 02:26:12;;;;;;;22.95;14.88;;;13.10;99.90;;;;;;5065941;28;20056;-44
2022/06/07 02:28:41;;;;;;;25.05;14.77;;;13.10;99.90;;;;;;5060744;28;20578;-44
2022/06/07 02:31:09;;;;;;;23.23;14.90;;;13.10;99.90;;;;;;5066667;28;20113;-43
2022/06/07 02:33:36;;;;;;;23.88;15.80;;;13.10;99.90;;;;;;5073624;28;20091;-44
2022/06/07 02:36:04;;;;;;;23.63;15.48;;;13.10;99.90;;;;;;5065185;28;20098;-44
2022/06/07 02:38:31;;;;;;;22.55;15.45;;;13.10;99.90;;;;;;5062546;28;20135;-43
2022/06/07 02:40:58;;;;;;;24.05;15.82;;;13.10;99.90;;;;;;5066357;28;20052;-43
2022/06/07 02:43:24;;;;;;;23.58;15.68;;;13.10;99.90;;;;;;5061460;28;20097;-44
2022/06/07 02:45:53;;;;;;;23.45;15.65;;;13.10;99.90;;;;;;5058530;28;20053;-43
2022/06/07 02:48:19;;;;;;;20.67;15.60;;;13.10;99.90;;;;;;5058202;28;20049;-44
2022/06/07 02:50:46;;;;;;;23.05;15.63;;;13.10;99.90;;;;;;5061940;28;20052;-44
2022/06/07 02:53:13;;;;;;;22.80;14.57;;;13.10;99.90;;;;;;5067671;28;20045;-43
2022/06/07 02:55:40;;;;;;;23.35;15.02;;;13.10;99.90;;;;;;5057990;28;20153;-43
2022/06/07 02:58:07;;;;;;;23.48;15.95;;;13.10;99.90;;;;;;5060589;28;20113;-43
2022/06/07 03:00:34;;;;;;;20.33;14.77;;;13.10;99.90;;;;;;5066677;28;20481;-43
2022/06/07 03:03:02;;;;;;;23.85;15.50;;;13.10;99.90;;;;;;5071724;28;20504;-44
2022/06/07 03:05:29;;;;;;;25.23;15.68;;;13.10;99.90;;;;;;5075833;28;20088;-43
2022/06/07 03:07:56;;;;;;;21.90;15.13;;;13.10;99.90;;;;;;5057551;28;20122;-44
2022/06/07 03:10:22;;;;;;;22.45;15.05;;;13.10;99.90;;;;;;5056545;28;20053;-43
2022/06/07 03:12:49;;;;;;;20.80;14.65;;;13.10;99.90;;;;;;5065751;28;20059;-44
2022/06/07 03:15:16;;;;;;;21.75;14.88;;;13.10;99.90;;;;;;5066200;28;20057;-43
2022/06/07 03:17:44;;;;;;;23.45;15.18;;;13.10;99.90;;;;;;5074610;28;20056;-43
2022/06/07 03:20:13;;;;;;;22.25;14.25;;;13.10;99.90;;;;;;5061192;28;20056;-44
2022/06/07 03:22:40;;;;;;;22.27;14.77;;;13.10;99.90;;;;;;5056302;28;20049;-43
2022/06/07 03:25:08;;;;;;;21.17;14.15;;;13.10;99.90;;;;;;5063534;28;20069;-43
2022/06/07 03:27:35;;;;;;;25.75;15.25;;;13.10;99.90;;;;;;5056114;28;20135;-43
2022/06/07 03:30:02;;;;;;;21.38;13.98;;;13.10;99.90;;;;;;5053298;28;20521;-43
2022/06/07 03:32:29;;;;;;;22.25;14.30;;;13.10;99.90;;;;;;5061769;28;20542;-44
2022/06/07 03:34:55;;;;;;;18.90;13.70;;;13.10;99.90;;;;;;5064296;28;20051;-43
2022/06/07 03:37:23;;;;;;;22.58;15.23;;;13.10;99.90;;;;;;5060094;28;20456;-43
2022/06/07 03:39:51;;;;;;;22.42;14.15;;;13.20;99.90;;;;;;5066517;28;20496;-43
2022/06/07 03:42:17;;;;;;;22.55;14.63;;;13.10;99.90;;;;;;5053910;28;20080;-43
2022/06/07 03:44:48;;;;;;;22.60;14.40;;;13.10;99.90;;;;;;5053282;28;20041;-44
2022/06/07 03:47:15;;;;;;;21.55;14.95;;;13.10;99.90;;;;;;5064399;28;20055;-43
2022/06/07 03:49:42;;;;;;;19.33;14.60;;;13.10;99.90;;;;;;5057507;28;20048;-43
2022/06/07 03:52:08;;;;;;;20.38;14.30;;;13.10;99.90;;;;;;5063952;28;20045;-43
2022/06/07 03:54:38;;;;;;;23.45;15.50;;;13.10;99.90;;;;;;5056591;28;20115;-43
2022/06/07 03:57:05;;;;;;;21.67;14.68;;;13.10;99.90;;;;;;5055976;28;20056;-44
2022/06/07 03:59:32;;;;;;;27.70;15.70;;;13.10;99.90;;;;;;5070827;28;20052;-43
2022/06/07 04:01:59;;;;;;;20.80;15.23;;;13.10;99.90;;;;;;5063995;28;20443;-44
2022/06/07 04:04:26;;;;;;;25.33;15.80;;;13.10;99.90;;;;;;5056225;28;20048;-44
2022/06/07 04:09:40;;;;;;;23.30;15.52;;;13.10;99.90;;;;;;5059645;28;20076;-43
2022/06/07 04:12:08;;;;;;;21.45;14.68;;;13.10;99.90;;;;;;5053746;28;20055;-44
2022/06/07 04:14:36;;;;;;;22.30;14.98;;;13.10;99.90;;;;;;5064878;28;20114;-44
2022/06/07 04:17:03;;;;;;;21.67;15.60;;;13.10;99.90;;;;;;5061004;28;20149;-43
2022/06/07 04:19:29;;;;;;;20.63;14.65;;;13.10;99.90;;;;;;5054378;28;20381;-43
2022/06/07 04:21:56;;;;;;;23.10;14.93;;;13.10;99.90;;;;;;5057801;28;20044;-43
2022/06/07 04:24:23;;;;;;;23.60;15.07;;;13.10;99.90;;;;;;5057762;28;20049;-43
2022/06/07 04:26:51;;;;;;;22.13;14.93;;;13.10;99.90;;;;;;5055935;28;20048;-44
2022/06/07 04:29:18;;;;;;;22.80;14.20;;;13.10;99.90;;;;;;5053555;28;20154;-44
2022/06/07 04:31:45;;;;;;;25.20;15.35;;;13.10;99.90;;;;;;5055436;28;20052;-44
2022/06/07 04:34:12;;;;;;;20.70;13.73;;;13.10;99.90;;;;;;5057946;28;20114;-44
2022/06/07 04:36:39;;;;;;;23.48;14.35;;;13.10;99.90;;;;;;5056172;28;20094;-43
2022/06/07 04:39:06;;;;;;;18.33;13.73;;;13.10;99.90;;;;;;5064933;28;20463;-44
2022/06/07 04:41:34;;;;;;;23.05;14.40;;;13.10;99.90;;;;;;5064856;28;20472;-43
2022/06/07 04:44:03;;;;;;;25.45;15.68;;;13.20;99.90;;;;;;5062124;28;20052;-44
2022/06/07 04:46:29;;;;;;;20.10;13.95;;;13.10;99.90;;;;;;5067538;28;20459;-43
2022/06/07 04:48:56;;;;;;;20.10;14.93;;;13.20;99.90;;;;;;5060083;28;20448;-43
2022/06/07 04:51:24;;;;;;;23.08;14.15;;;13.20;99.90;;;;;;5066459;28;20072;-43
2022/06/07 04:53:52;;;;;;;21.55;15.02;;;13.20;99.90;;;;;;5071719;28;20063;-44
2022/06/07 04:56:20;;;;;;;19.83;15.18;;;13.20;99.90;;;;;;5063712;28;20056;-43
2022/06/07 04:58:47;;;;;;;25.55;15.13;;;13.20;99.90;;;;;;5071511;28;20051;-44
2022/06/07 05:01:16;;;;;;;24.13;14.90;;;13.20;99.90;;;;;;5063116;28;20083;-43
2022/06/07 05:03:43;;;;;;;20.40;15.15;;;13.20;99.90;;;;;;5061681;28;20128;-43
2022/06/07 05:06:18;;;;;;;23.88;15.25;;;13.20;99.90;;;;;;5061905;28;20048;-43
2022/06/07 05:08:45;;;;;;;22.10;15.40;;;13.30;99.90;;;;;;5082554;28;20051;-44
2022/06/07 05:11:12;;;;;;;20.27;15.65;;;13.30;99.90;;;;;;5053000;28;20444;-44
2022/06/07 05:13:39;;;;;;;20.10;15.77;;;13.30;99.90;;;;;;5048857;28;20095;-44
2022/06/07 05:16:07;;;;;;;21.63;15.20;;;13.30;99.90;;;;;;5051258;28;20080;-44
2022/06/07 05:18:35;;;;;;;22.05;15.88;;;13.30;99.90;;;;;;5057356;28;20052;-43
2022/06/07 05:21:05;;;;;;;24.80;16.05;;;13.30;99.90;;;;;;5051668;28;20052;-44
2022/06/07 05:23:32;;;;;;;23.98;16.10;;;13.30;99.90;;;;;;5049399;28;20562;-43
2022/06/07 05:26:01;;;;;;;23.38;15.43;;;13.30;99.90;;;;;;5051216;28;20413;-44
2022/06/07 05:28:28;;;;;;;21.05;15.73;;;13.30;99.90;;;;;;5050685;28;20048;-44
2022/06/07 05:30:55;;;;;;;21.40;15.57;;;13.30;99.90;;;;;;5051280;28;20103;-44
2022/06/07 05:33:21;;;;;;;18.35;14.23;;;13.40;99.90;;;;;;5051737;28;20056;-43
2022/06/07 05:35:50;;;;;;;26.38;15.85;;;13.40;99.90;;;;;;5052632;28;20090;-43
2022/06/07 05:38:17;;;;;;;20.95;15.32;;;13.40;99.90;;;;;;5053300;28;20044;-43
2022/06/07 05:40:43;;;;;;;21.95;16.25;;;13.40;99.90;;;;;;5062106;28;20056;-44
2022/06/07 05:43:11;;;;;;;22.13;15.45;;;13.40;99.90;;;;;;5058250;28;20049;-43
2022/06/07 05:45:38;;;;;;;22.83;15.50;;;13.40;99.90;;;;;;5047356;28;20049;-43
2022/06/07 05:48:06;;;;;;;22.73;16.55;;;13.40;99.90;;;;;;5058013;28;20570;-44
2022/06/07 05:50:33;;;;;;;26.67;15.95;;;13.40;99.90;;;;;;5065069;28;20967;-43
2022/06/07 05:53:01;;;;;;;23.10;15.55;;;13.40;99.90;;;;;;5071989;28;20448;-44
2022/06/07 05:55:28;;;;;;;20.05;15.13;;;13.40;99.90;;;;;;5051774;28;20079;-43
2022/06/07 05:57:54;;;;;;;26.92;16.48;;;13.40;99.90;;;;;;5055631;28;20053;-43
2022/06/07 06:00:22;;;;;;;23.90;15.93;;;13.40;99.90;;;;;;5068498;28;20047;-43
2022/06/07 06:02:48;;;;;;;24.00;15.15;;;13.40;99.90;;;;;;5051152;28;20111;-44
2022/06/07 06:05:15;;;;;;;27.45;16.42;;;13.40;99.90;;;;;;5050822;28;20118;-44
2022/06/07 06:10:24;;;;;;;23.95;15.77;;;13.40;99.90;;;;;;5054740;28;20556;-43
2022/06/07 06:12:51;;;;;;;21.98;16.08;;;13.40;99.90;;;;;;5050905;28;20170;-43
2022/06/07 06:15:18;;;;;;;21.73;15.30;;;13.40;99.90;;;;;;5049660;28;20383;-44
2022/06/07 06:17:45;;;;;;;23.13;14.50;;;13.40;99.90;;;;;;5054027;28;20056;-43
2022/06/07 06:20:12;;;;;;;20.95;13.68;;;13.40;99.90;;;;;;5051709;28;20053;-44
2022/06/07 06:22:39;;;;;;;22.52;14.40;;;13.40;99.90;;;;;;5068539;28;20088;-43
2022/06/07 06:25:07;;;;;;;23.80;13.95;;;13.30;99.90;;;;;;5067637;28;20181;-43
2022/06/07 06:27:35;;;;;;;23.35;14.88;;;13.30;99.90;;;;;;5069916;28;20136;-44
2022/06/07 06:30:02;;;;;;;21.67;14.48;;;13.30;99.90;;;;;;5060975;28;20057;-44
2022/06/07 06:32:29;;;;;;;27.92;14.95;;;13.20;99.90;;;;;;5050287;28;20151;-45
2022/06/07 06:34:56;;;;;;;27.23;15.13;;;13.20;99.90;;;;;;5055284;28;20072;-45
2022/06/07 06:37:23;;;;;;;23.80;15.02;;;13.20;99.90;;;;;;5055050;28;20083;-45
2022/06/07 06:39:49;;;;;;;23.15;15.27;;;13.20;99.90;;;;;;5055751;28;20499;-46
2022/06/07 06:42:16;;;;;;;20.67;13.73;;;13.10;99.90;;;;;;5063212;28;20049;-44
2022/06/07 06:44:44;;;;;;;18.33;11.90;;;13.10;99.90;;;;;;5055678;28;20076;-44
2022/06/07 06:47:12;;;;;;;18.77;12.25;;;13.10;99.90;;;;;;5070663;28;20044;-45
2022/06/07 06:49:39;;;;;;;20.00;11.82;;;13.00;99.90;;;;;;5067602;28;20127;-46
2022/06/07 06:52:07;;;;;;;17.23;11.73;;;13.00;99.90;;;;;;5061635;28;20059;-45
2022/06/07 06:54:34;;;;;;;22.58;12.63;;;13.00;99.90;;;;;;5063679;28;20455;-44
2022/06/07 06:57:01;;;;;;;23.90;13.43;;;13.00;99.90;;;;;;5071019;28;20053;-44
2022/06/07 06:59:30;;;;;;;27.73;14.77;;;13.00;99.90;;;;;;5065223;28;20053;-44
2022/06/07 07:01:58;;;;;;;23.83;14.43;;;13.10;99.90;;;;;;5066342;28;20484;-44
2022/06/07 07:04:25;;;;;;;24.35;14.75;;;13.10;99.90;;;;;;5066986;28;20102;-44
2022/06/07 07:06:51;;;;;;;24.88;15.02;;;13.10;99.90;;;;;;5073355;28;20106;-44
2022/06/07 07:09:22;;;;;;;23.20;14.57;;;13.20;99.90;;;;;;5057168;28;20130;-44
2022/06/07 07:11:49;;;;;;;20.50;14.23;;;13.20;99.90;;;;;;5058699;28;20123;-44
2022/06/07 07:14:16;;;;;;;26.85;13.18;;;13.30;99.90;;;;;;5053164;28;20299;-43
2022/06/07 07:16:44;;;;;;;19.88;12.63;;;13.30;99.90;;;;;;5056058;28;20048;-44
2022/06/07 07:19:13;;;;;;;18.95;12.05;;;13.30;99.90;;;;;;5074567;28;20057;-44
2022/06/07 07:21:40;;;;;;;23.45;11.50;;;13.30;99.90;;;;;;5073771;28;20041;-44
2022/06/07 07:24:09;;;;;;;20.42;10.23;;;13.30;99.90;;;;;;5066783;28;20076;-43
2022/06/07 07:26:36;;;;;;;18.50;9.35;;;13.40;99.90;;;;;;5054128;28;20048;-44
2022/06/07 07:29:03;;;;;;;14.85;8.70;;;13.40;99.90;;;;;;5053800;28;20041;-43
2022/06/07 07:31:32;;;;;;;18.73;7.97;;;13.40;99.90;;;;;;5054010;28;20481;-43
2022/06/07 07:33:59;;;;;;;14.15;7.45;;;13.40;99.90;;;;;;5054018;28;20448;-44
2022/06/07 07:36:28;;;;;;;10.80;6.43;;;13.40;99.90;;;;;;5054390;28;20045;-43
2022/06/07 07:38:55;;;;;;;16.70;6.80;;;13.30;99.90;;;;;;5054599;28;20052;-44
2022/06/07 07:41:23;;;;;;;13.52;5.88;;;13.30;99.90;;;;;;5074926;28;20053;-43
2022/06/07 07:43:50;;;;;;;10.27;5.88;;;13.30;99.90;;;;;;5071858;28;20454;-43
2022/06/07 07:46:17;;;;;;;13.23;5.35;;;13.30;99.90;;;;;;5064263;28;20048;-43
2022/06/07 07:48:44;;;;;;;14.27;5.93;;;13.30;99.90;;;;;;5067386;28;20068;-43
2022/06/07 07:51:16;;;;;;;12.40;4.88;;;13.30;99.90;;;;;;5071084;28;20106;-43
2022/06/07 07:53:44;;;;;;;13.15;4.90;;;13.30;99.90;;;;;;5070488;28;20114;-43
2022/06/07 07:56:11;;;;;;;12.68;5.05;;;13.30;99.90;;;;;;5052625;28;20053;-43
2022/06/07 07:58:38;;;;;;;12.93;5.22;;;13.30;99.90;;;;;;5054452;28;20054;-44
2022/06/07 08:01:08;;;;;;;13.23;5.53;;;13.30;99.90;;;;;;5059596;28;20186;-43
2022/06/07 08:03:35;;;;;;;17.15;6.35;;;13.40;99.90;;;;;;5071617;28;20048;-43
2022/06/07 08:06:02;;;;;;;14.02;6.40;;;13.40;99.90;;;;;;5058434;28;20060;-43
2022/06/07 08:08:29;;;;;;;17.73;6.32;;;13.40;99.90;;;;;;5072412;28;20380;-44
2022/06/07 08:10:57;;;;;;;17.75;5.90;;;13.50;99.90;;;;;;5056028;28;20219;-43
2022/06/07 08:13:24;;;;;;;14.20;6.20;;;13.50;99.90;;;;;;5053395;28;20084;-43
2022/06/07 08:15:51;;;;;;;16.52;6.65;;;13.50;99.90;;;;;;5057336;28;20048;-44
2022/06/07 08:18:18;;;;;;;17.35;6.85;;;13.50;99.90;;;;;;5067427;28;20053;-43
2022/06/07 08:20:46;;;;;;;16.48;7.20;;;13.50;99.90;;;;;;5072992;28;20455;-44
2022/06/07 08:23:13;;;;;;;14.20;7.72;;;13.50;99.90;;;;;;5073318;28;20044;-44
2022/06/07 08:25:40;;;;;;;15.55;7.45;;;13.50;99.90;;;;;;5073117;28;20052;-44
2022/06/07 08:28:08;;;;;;;18.42;7.78;;;13.50;99.90;;;;;;5073298;28;20118;-44
2022/06/07 08:30:36;;;;;;;17.35;8.18;;;13.50;99.90;;;;;;5071889;28;20053;-44
2022/06/07 08:37:32;;;;;;;19.05;8.52;;;13.60;99.90;;;;;;5071741;28;20052;-44
2022/06/07 08:38:34;;;;;;;19.55;8.73;;;13.60;99.90;;;;;;5052896;28;20131;-44
2022/06/07 08:41:01;;;;;;;17.77;7.90;;;13.60;99.90;;;;;;5056782;28;20074;-44
2022/06/07 08:43:29;;;;;;;14.75;7.68;;;13.60;99.90;;;;;;5071733;28;20451;-43
2022/06/07 08:45:57;;;;;;;15.35;8.18;;;13.60;99.90;;;;;;5070153;28;20324;-43
2022/06/07 08:48:26;;;;;;;24.23;8.55;;;13.70;99.90;;;;;;5071521;28;20053;-44
2022/06/07 08:51:00;;;;;;;22.02;8.80;;;13.70;99.90;;;;;;5070921;28;20044;-44
2022/06/07 08:53:30;;;;;;;18.30;9.20;;;13.70;99.90;;;;;;5071549;28;20049;-43
2022/06/07 08:55:59;;;;;;;25.17;8.65;;;13.70;99.90;;;;;;5072875;28;20060;-43
2022/06/07 08:58:27;;;;;;;20.98;8.23;;;13.80;99.90;;;;;;5071598;28;20048;-44
2022/06/07 09:00:57;;;;;;;14.70;8.30;;;13.80;99.90;;;;;;5071965;28;20049;-44
2022/06/07 09:03:49;;;;;;;16.95;8.73;;;13.80;99.90;;;;;;5072301;28;20048;-44
2022/06/07 09:06:18;;;;;;;;;;;13.70;99.90;;;;;;5072904;28;20075;-44
2022/06/07 09:08:46;;;;;;;17.08;7.95;;;13.70;99.90;;;;;;5072332;28;19920;-44
2022/06/07 09:14:05;;;;;;;19.88;9.25;;;13.70;99.90;;;;;;5056432;28;20053;-44
2022/06/07 09:16:42;;;;;;;23.25;8.88;;;13.70;99.90;;;;;;5058628;28;20449;-44
2022/06/07 09:19:10;;;;;;;18.95;8.88;;;13.80;99.90;;;;;;5067343;28;20477;-44
2022/06/07 09:21:40;;;;;;;19.83;9.07;;;13.70;99.90;;;;;;5083926;28;20048;-45
2022/06/07 09:24:11;;;;;;;17.92;7.93;;;13.70;99.90;;;;;;5052042;28;20056;-45
2022/06/07 09:26:39;;;;;;;16.42;7.70;;;13.70;99.90;;;;;;5084800;28;20175;-45
2022/06/07 09:29:09;;;;;;;18.45;8.25;;;13.70;99.90;;;;;;5060823;28;20512;-46
2022/06/07 09:31:39;;;;;;;21.15;8.52;;;13.70;99.90;;;;;;5070804;28;20060;-46
2022/06/07 09:34:07;;;;;;;20.35;8.25;;;13.70;99.90;;;;;;5071851;28;20500;-47
2022/06/07 09:36:36;;;;;;;16.33;7.40;;;13.70;99.90;;;;;;5060033;28;20445;-46
2022/06/07 09:39:07;;;;;;;15.77;7.28;;;13.70;99.90;;;;;;5050510;28;20548;-47
2022/06/07 09:41:39;;;;;;;19.05;8.55;;;13.80;99.90;;;;;;5052199;28;20456;-46
2022/06/07 09:44:13;;;;;;;12.88;7.55;;;13.80;99.90;;;;;;5052177;28;20045;-46
2022/06/07 09:46:41;;;;;;;16.15;7.72;;;13.80;99.90;;;;;;5051934;28;20481;-46
2022/06/07 09:49:24;;;;;;;13.40;7.03;;;13.90;99.90;;;;;;5071767;28;20071;-46
2022/06/07 09:51:51;;;;;;;11.88;6.22;;;13.90;99.90;;;;;;5070848;28;20052;-46
2022/06/07 09:54:19;;;;;;;16.45;7.45;;;13.90;99.90;;;;;;5068325;28;20071;-45
2022/06/07 09:56:51;;;;;;;16.90;7.18;;;13.90;99.90;;;;;;5051163;28;20421;-45
2022/06/07 09:59:27;;;;;;;;;;;13.90;99.90;;;;;;5051399;28;20056;-44
2022/06/07 10:01:58;;;;;;;12.18;6.25;;;13.80;99.90;;;;;;5063051;28;19921;-44
2022/06/07 10:04:29;;;;;;;15.05;6.65;;;13.80;99.90;;;;;;5051438;28;20049;-45
2022/06/07 10:06:58;;;;;;;15.50;6.37;;;13.90;99.90;;;;;;5051987;28;20084;-45
2022/06/07 10:09:38;;;;;;;15.32;6.82;;;13.90;99.90;;;;;;5050286;28;20052;-45
2022/06/07 10:12:12;;;;;;;11.02;5.70;;;13.90;99.90;;;;;;5049831;28;20076;-45
2022/06/07 10:14:42;;;;;;;16.05;6.43;;;13.90;99.90;;;;;;5051207;28;20457;-45
2022/06/07 10:17:42;;;;;;;10.82;6.10;;;13.90;99.90;;;;;;5050392;28;20083;-45
2022/06/07 10:20:13;;;;;;;10.88;5.57;;;13.90;99.90;;;;;;5065650;28;20143;-45
2022/06/07 10:22:49;;;;;;;16.33;6.03;;;13.90;99.90;;;;;;5050280;28;20521;-46
2022/06/07 10:25:17;;;;;;;12.43;5.55;;;13.90;99.90;;;;;;5050412;28;20456;-45
2022/06/07 10:27:51;;;;;;;8.68;5.13;;;13.90;99.90;;;;;;5061204;28;20110;-45
2022/06/07 10:30:20;;;;;;;11.40;5.70;;;13.90;99.90;;;;;;5089593;28;20044;-45
2022/06/07 10:33:07;;;;;;;15.35;5.35;;;13.90;99.90;;;;;;5087798;28;20055;-45
2022/06/07 10:35:42;;;;;;;9.90;5.00;;;13.90;99.90;;;;;;5053996;28;20049;-44
2022/06/07 10:38:35;;;;;;;12.52;4.93;;;13.90;99.90;;;;;;5056473;28;20448;-44
2022/06/07 10:41:05;;;;;;;12.52;5.45;;;14.00;99.90;;;;;;5068635;28;20045;-44
2022/06/07 10:43:34;;;;;;;12.77;5.88;;;14.00;99.90;;;;;;5074320;28;20045;-44
2022/06/07 10:46:01;;;;;;;11.63;5.32;;;14.00;99.90;;;;;;5060976;28;20057;-44
2022/06/07 10:48:33;;;;;;;11.20;5.50;;;14.00;99.90;;;;;;5062326;28;20048;-44
2022/06/07 10:51:03;;;;;;;12.15;5.68;;;14.00;99.90;;;;;;5054923;28;20056;-44
2022/06/07 10:53:30;;;;;;;10.77;3.90;;;14.00;99.90;;;;;;5063725;28;20102;-44
2022/06/07 10:56:00;;;;;;;6.03;4.03;;;14.00;99.90;;;;;;5073272;28;20064;-45
2022/06/07 10:58:31;;;;;;;8.93;3.88;;;13.90;99.90;;;;;;5071586;28;20578;-45
2022/06/07 11:00:59;;;;;;;6.90;3.72;;;13.90;99.90;;;;;;5072022;28;20060;-45
2022/06/07 11:03:32;;;;;;;7.43;3.03;;;13.80;99.90;;;;;;5073837;28;20080;-45
2022/06/07 11:11:35;;;;;;;7.15;3.03;;;13.90;99.90;;;;;;5072961;28;20044;-46
2022/06/07 11:14:07;;;;;;;3.38;2.00;;;13.90;99.90;;;;;;5069327;28;20143;-46
2022/06/07 11:16:37;;;;;;;4.40;2.22;;;13.90;99.90;;;;;;5073776;28;20134;-46
2022/06/07 11:19:05;;;;;;;4.88;1.95;;;13.90;99.90;;;;;;5072697;28;20102;-46
2022/06/07 11:21:33;;;;;;;4.90;2.05;;;13.90;99.90;;;;;;5070676;28;20488;-46
2022/06/07 11:24:07;;;;;;;4.38;2.08;;;13.90;99.90;;;;;;5074525;28;20054;-45
2022/06/07 11:26:38;;;;;;;4.82;2.13;;;13.80;99.90;;;;;;5065614;28;20047;-46
2022/06/07 11:29:07;;;;;;;3.20;1.58;;;13.80;99.90;;;;;;5069654;28;20448;-45
2022/06/07 11:31:42;;;;;;;3.45;1.70;;;13.80;99.90;;;;;;5065269;28;20057;-46
2022/06/07 11:34:22;;;;;;;4.88;1.60;;;13.70;99.90;;;;;;5074338;28;20141;-45
2022/06/07 11:36:48;;;;;;;3.72;1.90;;;13.70;99.90;;;;;;5074341;28;20049;-46
2022/06/07 11:39:28;;;;;;;3.58;1.48;;;13.80;99.90;;;;;;5068971;28;20043;-46
2022/06/07 11:41:55;;;;;;;4.70;1.50;;;13.80;99.90;;;;;;5064397;28;20396;-46
2022/06/07 11:44:59;;;;;;;4.00;1.50;;;13.80;99.90;;;;;;5073235;28;20412;-46
2022/06/07 11:47:33;;;;;;;4.93;1.80;;;13.80;99.90;;;;;;5061228;28;20056;-46
2022/06/07 11:50:27;;;;;;;3.80;1.55;;;13.70;99.90;;;;;;5053897;28;20059;-46
2022/06/07 11:52:59;;;;;;;3.60;1.42;;;13.70;99.90;;;;;;5063613;28;20052;-46
2022/06/07 11:55:26;;;;;;;3.78;1.60;;;13.70;99.90;;;;;;5065700;28;20114;-46
2022/06/07 11:58:00;;;;;;;5.65;1.90;;;13.60;99.90;;;;;;5071957;28;20044;-46
2022/06/07 12:00:43;;;;;;;4.35;1.52;;;13.60;99.90;;;;;;5072301;28;20055;-46
2022/06/07 12:03:30;;;;;;;6.68;2.08;;;13.60;99.90;;;;;;5055062;28;20048;-46
2022/06/07 12:06:06;;;;;;;5.57;2.47;;;13.60;99.90;;;;;;5054605;28;20464;-45
2022/06/07 12:08:40;;;;;;;4.90;2.30;;;13.60;99.90;;;;;;5053731;28;20098;-45
2022/06/07 12:11:21;;;;;;;6.72;2.22;;;13.70;99.90;;;;;;5053492;28;20084;-45
2022/06/07 12:13:53;;;;;;;7.10;2.30;;;13.70;99.90;;;;;;5053607;28;20140;-45
2022/06/07 12:16:27;;;;;;;11.45;5.03;;;13.70;99.90;;;;;;5054466;28;20045;-44
2022/06/07 12:18:54;;;;;;;6.28;3.40;;;13.70;99.90;;;;;;5054593;28;20049;-44
2022/06/07 12:21:22;;;;;;;6.22;3.22;;;13.70;99.90;;;;;;5057607;28;20355;-45
2022/06/07 12:23:50;;;;;;;14.73;6.05;;;13.80;99.90;;;;;;5053168;28;20107;-45
2022/06/07 12:26:18;;;;;;;27.85;10.90;;;13.80;99.90;;;;;;5062216;28;20458;-44
2022/06/07 12:28:51;;;;;;;10.98;4.60;;;13.80;99.90;;;;;;5053200;28;20132;-44
2022/06/07 12:31:24;;;;;;;9.38;3.42;;;13.80;99.90;;;;;;5055228;28;20374;-44
2022/06/07 12:33:51;;;;;;;7.97;3.00;;;13.80;99.90;;;;;;5074288;28;20048;-44
2022/06/07 12:36:19;;;;;;;8.95;3.20;;;13.90;99.90;;;;;;5074113;28;20053;-44
2022/06/07 12:38:48;;;;;;;7.47;2.70;;;13.80;99.90;;;;;;5072078;28;20048;-44
2022/06/07 12:41:17;;;;;;;8.70;3.30;;;13.90;99.90;;;;;;5071758;28;20088;-44
2022/06/07 12:43:45;;;;;;;9.52;2.65;;;13.80;99.90;;;;;;5070896;28;20078;-44
2022/06/07 12:46:21;;;;;;;6.15;3.05;;;13.80;99.90;;;;;;5073915;28;20057;-44
2022/06/07 12:48:47;;;;;;;10.40;2.50;;;13.80;99.90;;;;;;5073777;28;20114;-43
2022/06/07 12:51:28;;;;;;;10.65;3.20;;;13.80;99.90;;;;;;5071405;28;20055;-43
2022/06/07 12:54:01;;;;;;;8.43;2.60;;;13.80;99.90;;;;;;5063297;28;20056;-44
2022/06/07 12:56:28;;;;;;;11.10;2.60;;;13.90;99.90;;;;;;5060941;28;20049;-44
2022/06/07 12:58:57;;;;;;;9.98;2.88;;;13.80;99.90;;;;;;5058037;28;20477;-43
2022/06/07 13:01:25;;;;;;;11.85;2.95;;;13.90;99.90;;;;;;5058636;28;20051;-44
2022/06/07 13:03:53;;;;;;;7.50;2.97;;;14.00;99.90;;;;;;5062194;28;20084;-44
2022/06/07 13:06:20;;;;;;;8.13;3.10;;;14.00;99.90;;;;;;5071301;28;20132;-44